sensor_id;sensor_type;location;lat;lon;timestamp;P1;durP1;ratioP1;P2;durP2;ratioP2
16075;SDS011;8142;48.242;11.644;2023-07-29T00:02:10;3.47;;;3.10;;
16075;SDS011;8142;48.242;11.644;2023-07-29T00:04:36;4.90;;;3.43;;
16075;SDS011;8142;48.242;11.644;2023-07-29T00:07:01;3.70;;;3.20;;
16075;SDS011;8142;48.242;11.644;2023-07-29T00:09:27;4.33;;;3.03;;
16075;SDS011;8142;48.242;11.644;2023-07-29T00:11:53;3.57;;;2.93;;
16075;SDS011;8142;48.242;11.644;2023-07-29T00:14:19;3.60;;;2.93;;
16075;SDS011;8142;48.242;11.644;2023-07-29T00:16:45;5.03;;;3.20;;
16075;SDS011;8142;48.242;11.644;2023-07-29T00:19:12;4.50;;;3.07;;
16075;SDS011;8142;48.242;11.644;2023-07-29T00:21:38;4.07;;;3.17;;
16075;SDS011;8142;48.242;11.644;2023-07-29T00:24:03;4.03;;;3.23;;
16075;SDS011;8142;48.242;11.644;2023-07-29T00:26:29;5.87;;;2.93;;
16075;SDS011;8142;48.242;11.644;2023-07-29T00:28:56;3.90;;;3.23;;
16075;SDS011;8142;48.242;11.644;2023-07-29T00:31:21;5.30;;;3.03;;
16075;SDS011;8142;48.242;11.644;2023-07-29T00:33:48;3.53;;;3.23;;
16075;SDS011;8142;48.242;11.644;2023-07-29T00:36:14;3.70;;;3.30;;
16075;SDS011;8142;48.242;11.644;2023-07-29T00:38:40;3.50;;;3.10;;
16075;SDS011;8142;48.242;11.644;2023-07-29T00:41:05;3.73;;;3.20;;
16075;SDS011;8142;48.242;11.644;2023-07-29T00:43:33;4.33;;;3.40;;
16075;SDS011;8142;48.242;11.644;2023-07-29T00:45:59;3.83;;;3.17;;
16075;SDS011;8142;48.242;11.644;2023-07-29T00:48:25;3.60;;;3.20;;
16075;SDS011;8142;48.242;11.644;2023-07-29T00:50:51;4.10;;;3.30;;
16075;SDS011;8142;48.242;11.644;2023-07-29T00:53:18;3.93;;;3.30;;
16075;SDS011;8142;48.242;11.644;2023-07-29T00:55:44;5.60;;;3.43;;
16075;SDS011;8142;48.242;11.644;2023-07-29T00:58:10;4.10;;;3.30;;
16075;SDS011;8142;48.242;11.644;2023-07-29T01:00:36;4.77;;;3.57;;
16075;SDS011;8142;48.242;11.644;2023-07-29T01:03:02;7.53;;;3.37;;
16075;SDS011;8142;48.242;11.644;2023-07-29T01:05:30;4.63;;;3.17;;
16075;SDS011;8142;48.242;11.644;2023-07-29T01:10:46;3.90;;;3.30;;
16075;SDS011;8142;48.242;11.644;2023-07-29T01:13:25;4.20;;;3.10;;
16075;SDS011;8142;48.242;11.644;2023-07-29T01:16:15;4.00;;;2.57;;
16075;SDS011;8142;48.242;11.644;2023-07-29T01:18:47;4.03;;;3.10;;
16075;SDS011;8142;48.242;11.644;2023-07-29T01:21:15;3.53;;;2.80;;
16075;SDS011;8142;48.242;11.644;2023-07-29T01:23:42;3.40;;;2.97;;
16075;SDS011;8142;48.242;11.644;2023-07-29T01:26:09;3.13;;;2.83;;
16075;SDS011;8142;48.242;11.644;2023-07-29T01:28:35;3.93;;;2.93;;
16075;SDS011;8142;48.242;11.644;2023-07-29T01:33:38;3.93;;;2.90;;
16075;SDS011;8142;48.242;11.644;2023-07-29T01:36:13;4.57;;;2.93;;
16075;SDS011;8142;48.242;11.644;2023-07-29T01:38:44;3.17;;;2.70;;
16075;SDS011;8142;48.242;11.644;2023-07-29T01:41:11;3.57;;;2.83;;
16075;SDS011;8142;48.242;11.644;2023-07-29T01:43:38;5.03;;;2.87;;
16075;SDS011;8142;48.242;11.644;2023-07-29T01:46:12;4.07;;;2.87;;
16075;SDS011;8142;48.242;11.644;2023-07-29T01:48:38;3.40;;;2.83;;
16075;SDS011;8142;48.242;11.644;2023-07-29T01:51:05;3.60;;;2.80;;
16075;SDS011;8142;48.242;11.644;2023-07-29T01:53:32;3.13;;;2.60;;
16075;SDS011;8142;48.242;11.644;2023-07-29T01:55:58;4.73;;;3.00;;
16075;SDS011;8142;48.242;11.644;2023-07-29T01:58:24;4.13;;;2.80;;
16075;SDS011;8142;48.242;11.644;2023-07-29T02:00:50;3.60;;;2.60;;
16075;SDS011;8142;48.242;11.644;2023-07-29T02:03:16;3.87;;;2.90;;
16075;SDS011;8142;48.242;11.644;2023-07-29T02:05:42;4.00;;;3.30;;
16075;SDS011;8142;48.242;11.644;2023-07-29T02:08:09;4.40;;;2.73;;
16075;SDS011;8142;48.242;11.644;2023-07-29T02:10:35;3.33;;;2.97;;
16075;SDS011;8142;48.242;11.644;2023-07-29T02:13:01;4.77;;;3.07;;
16075;SDS011;8142;48.242;11.644;2023-07-29T02:15:28;3.60;;;2.77;;
16075;SDS011;8142;48.242;11.644;2023-07-29T02:17:53;4.50;;;3.00;;
16075;SDS011;8142;48.242;11.644;2023-07-29T02:20:19;4.17;;;3.20;;
16075;SDS011;8142;48.242;11.644;2023-07-29T02:22:45;3.87;;;3.10;;
16075;SDS011;8142;48.242;11.644;2023-07-29T02:25:12;3.83;;;3.20;;
16075;SDS011;8142;48.242;11.644;2023-07-29T02:27:38;4.40;;;3.33;;
16075;SDS011;8142;48.242;11.644;2023-07-29T02:30:04;4.20;;;3.10;;
16075;SDS011;8142;48.242;11.644;2023-07-29T02:32:31;6.90;;;3.33;;
16075;SDS011;8142;48.242;11.644;2023-07-29T02:34:56;3.43;;;2.93;;
16075;SDS011;8142;48.242;11.644;2023-07-29T02:37:22;3.93;;;2.90;;
16075;SDS011;8142;48.242;11.644;2023-07-29T02:39:48;4.00;;;2.70;;
16075;SDS011;8142;48.242;11.644;2023-07-29T02:42:14;4.33;;;2.50;;
16075;SDS011;8142;48.242;11.644;2023-07-29T02:44:40;3.93;;;2.90;;
16075;SDS011;8142;48.242;11.644;2023-07-29T02:47:06;2.87;;;2.60;;
16075;SDS011;8142;48.242;11.644;2023-07-29T02:49:32;3.80;;;2.77;;
16075;SDS011;8142;48.242;11.644;2023-07-29T02:51:58;3.70;;;2.60;;
16075;SDS011;8142;48.242;11.644;2023-07-29T02:54:23;2.83;;;2.43;;
16075;SDS011;8142;48.242;11.644;2023-07-29T02:56:50;2.90;;;2.50;;
16075;SDS011;8142;48.242;11.644;2023-07-29T02:59:16;3.93;;;2.90;;
16075;SDS011;8142;48.242;11.644;2023-07-29T03:01:42;3.83;;;2.90;;
16075;SDS011;8142;48.242;11.644;2023-07-29T03:04:08;4.60;;;2.67;;
16075;SDS011;8142;48.242;11.644;2023-07-29T03:06:34;3.00;;;2.70;;
16075;SDS011;8142;48.242;11.644;2023-07-29T03:09:00;3.30;;;2.70;;
16075;SDS011;8142;48.242;11.644;2023-07-29T03:11:26;3.80;;;2.50;;
16075;SDS011;8142;48.242;11.644;2023-07-29T03:13:52;3.30;;;2.90;;
16075;SDS011;8142;48.242;11.644;2023-07-29T03:16:17;4.17;;;3.00;;
16075;SDS011;8142;48.242;11.644;2023-07-29T03:18:43;3.10;;;2.70;;
16075;SDS011;8142;48.242;11.644;2023-07-29T03:21:10;4.47;;;2.70;;
16075;SDS011;8142;48.242;11.644;2023-07-29T03:23:36;3.43;;;2.70;;
16075;SDS011;8142;48.242;11.644;2023-07-29T03:26:03;4.20;;;2.20;;
16075;SDS011;8142;48.242;11.644;2023-07-29T03:28:36;2.50;;;2.30;;
16075;SDS011;8142;48.242;11.644;2023-07-29T03:31:06;2.57;;;2.37;;
16075;SDS011;8142;48.242;11.644;2023-07-29T03:33:32;3.80;;;2.60;;
16075;SDS011;8142;48.242;11.644;2023-07-29T03:35:58;5.30;;;2.47;;
16075;SDS011;8142;48.242;11.644;2023-07-29T03:38:24;4.73;;;2.70;;
16075;SDS011;8142;48.242;11.644;2023-07-29T03:40:51;4.87;;;2.60;;
16075;SDS011;8142;48.242;11.644;2023-07-29T03:43:16;2.53;;;2.33;;
16075;SDS011;8142;48.242;11.644;2023-07-29T03:45:42;2.57;;;2.27;;
16075;SDS011;8142;48.242;11.644;2023-07-29T03:48:08;3.97;;;2.80;;
16075;SDS011;8142;48.242;11.644;2023-07-29T03:50:35;3.93;;;2.60;;
16075;SDS011;8142;48.242;11.644;2023-07-29T03:53:02;2.80;;;2.50;;
16075;SDS011;8142;48.242;11.644;2023-07-29T03:55:28;2.80;;;2.50;;
16075;SDS011;8142;48.242;11.644;2023-07-29T03:57:57;4.43;;;2.70;;
16075;SDS011;8142;48.242;11.644;2023-07-29T04:00:24;3.37;;;2.60;;
16075;SDS011;8142;48.242;11.644;2023-07-29T04:02:51;3.93;;;2.50;;
16075;SDS011;8142;48.242;11.644;2023-07-29T04:05:17;2.93;;;2.53;;
16075;SDS011;8142;48.242;11.644;2023-07-29T04:07:43;3.20;;;2.60;;
16075;SDS011;8142;48.242;11.644;2023-07-29T04:10:09;3.27;;;2.40;;
16075;SDS011;8142;48.242;11.644;2023-07-29T04:12:35;2.50;;;2.30;;
16075;SDS011;8142;48.242;11.644;2023-07-29T04:15:01;2.83;;;2.37;;
16075;SDS011;8142;48.242;11.644;2023-07-29T04:17:28;2.77;;;2.40;;
16075;SDS011;8142;48.242;11.644;2023-07-29T04:19:53;2.90;;;2.37;;
16075;SDS011;8142;48.242;11.644;2023-07-29T04:22:19;3.10;;;2.33;;
16075;SDS011;8142;48.242;11.644;2023-07-29T04:24:46;2.30;;;2.10;;
16075;SDS011;8142;48.242;11.644;2023-07-29T04:27:11;2.93;;;2.40;;
16075;SDS011;8142;48.242;11.644;2023-07-29T04:29:37;2.43;;;2.23;;
16075;SDS011;8142;48.242;11.644;2023-07-29T04:32:03;2.50;;;2.30;;
16075;SDS011;8142;48.242;11.644;2023-07-29T04:34:29;2.47;;;2.20;;
16075;SDS011;8142;48.242;11.644;2023-07-29T04:36:56;3.07;;;2.40;;
16075;SDS011;8142;48.242;11.644;2023-07-29T04:39:22;5.50;;;2.67;;
16075;SDS011;8142;48.242;11.644;2023-07-29T04:41:48;3.23;;;2.20;;
16075;SDS011;8142;48.242;11.644;2023-07-29T04:44:14;4.67;;;2.40;;
16075;SDS011;8142;48.242;11.644;2023-07-29T04:46:39;3.50;;;2.50;;
16075;SDS011;8142;48.242;11.644;2023-07-29T04:49:05;2.50;;;2.23;;
16075;SDS011;8142;48.242;11.644;2023-07-29T04:51:31;4.63;;;2.50;;
16075;SDS011;8142;48.242;11.644;2023-07-29T04:53:58;3.33;;;2.37;;
16075;SDS011;8142;48.242;11.644;2023-07-29T04:56:24;2.30;;;2.10;;
16075;SDS011;8142;48.242;11.644;2023-07-29T04:58:50;2.83;;;2.40;;
16075;SDS011;8142;48.242;11.644;2023-07-29T05:01:16;4.07;;;2.20;;
16075;SDS011;8142;48.242;11.644;2023-07-29T05:03:42;6.50;;;2.47;;
16075;SDS011;8142;48.242;11.644;2023-07-29T05:06:08;3.60;;;2.60;;
16075;SDS011;8142;48.242;11.644;2023-07-29T05:08:34;3.17;;;2.60;;
16075;SDS011;8142;48.242;11.644;2023-07-29T05:11:00;2.87;;;2.07;;
16075;SDS011;8142;48.242;11.644;2023-07-29T05:13:26;2.87;;;2.50;;
16075;SDS011;8142;48.242;11.644;2023-07-29T05:15:52;2.77;;;2.20;;
16075;SDS011;8142;48.242;11.644;2023-07-29T05:18:18;3.40;;;2.40;;
16075;SDS011;8142;48.242;11.644;2023-07-29T05:20:44;2.73;;;2.50;;
16075;SDS011;8142;48.242;11.644;2023-07-29T05:23:10;3.07;;;2.30;;
16075;SDS011;8142;48.242;11.644;2023-07-29T05:25:35;3.33;;;2.63;;
16075;SDS011;8142;48.242;11.644;2023-07-29T05:28:02;2.53;;;2.33;;
16075;SDS011;8142;48.242;11.644;2023-07-29T05:30:28;2.93;;;2.17;;
16075;SDS011;8142;48.242;11.644;2023-07-29T05:32:57;2.27;;;2.07;;
16075;SDS011;8142;48.242;11.644;2023-07-29T05:35:23;2.00;;;1.90;;
16075;SDS011;8142;48.242;11.644;2023-07-29T05:37:50;2.93;;;1.90;;
16075;SDS011;8142;48.242;11.644;2023-07-29T05:40:16;3.17;;;1.80;;
16075;SDS011;8142;48.242;11.644;2023-07-29T05:42:42;2.73;;;2.37;;
16075;SDS011;8142;48.242;11.644;2023-07-29T05:45:09;3.27;;;2.50;;
16075;SDS011;8142;48.242;11.644;2023-07-29T05:47:35;2.60;;;2.03;;
16075;SDS011;8142;48.242;11.644;2023-07-29T05:50:02;2.60;;;1.97;;
16075;SDS011;8142;48.242;11.644;2023-07-29T05:52:30;2.20;;;1.93;;
16075;SDS011;8142;48.242;11.644;2023-07-29T05:54:56;2.80;;;1.80;;
16075;SDS011;8142;48.242;11.644;2023-07-29T05:57:22;2.17;;;1.90;;
16075;SDS011;8142;48.242;11.644;2023-07-29T05:59:48;2.30;;;2.10;;
16075;SDS011;8142;48.242;11.644;2023-07-29T06:02:14;3.30;;;2.00;;
16075;SDS011;8142;48.242;11.644;2023-07-29T06:04:40;4.57;;;2.30;;
16075;SDS011;8142;48.242;11.644;2023-07-29T06:07:06;2.27;;;1.93;;
16075;SDS011;8142;48.242;11.644;2023-07-29T06:09:32;2.10;;;1.90;;
16075;SDS011;8142;48.242;11.644;2023-07-29T06:11:58;3.67;;;1.90;;
16075;SDS011;8142;48.242;11.644;2023-07-29T06:14:24;2.30;;;1.83;;
16075;SDS011;8142;48.242;11.644;2023-07-29T06:16:50;2.97;;;1.93;;
16075;SDS011;8142;48.242;11.644;2023-07-29T06:19:15;2.10;;;1.70;;
16075;SDS011;8142;48.242;11.644;2023-07-29T06:21:41;3.13;;;2.07;;
16075;SDS011;8142;48.242;11.644;2023-07-29T06:24:07;1.90;;;1.80;;
16075;SDS011;8142;48.242;11.644;2023-07-29T06:26:33;2.07;;;1.90;;
16075;SDS011;8142;48.242;11.644;2023-07-29T06:28:59;2.10;;;1.90;;
16075;SDS011;8142;48.242;11.644;2023-07-29T06:31:24;2.33;;;2.10;;
16075;SDS011;8142;48.242;11.644;2023-07-29T06:33:50;2.20;;;2.00;;
16075;SDS011;8142;48.242;11.644;2023-07-29T06:36:16;1.90;;;1.80;;
16075;SDS011;8142;48.242;11.644;2023-07-29T06:38:43;2.53;;;1.80;;
16075;SDS011;8142;48.242;11.644;2023-07-29T06:41:08;3.33;;;1.93;;
16075;SDS011;8142;48.242;11.644;2023-07-29T06:43:34;2.43;;;2.03;;
16075;SDS011;8142;48.242;11.644;2023-07-29T06:46:00;1.80;;;1.70;;
16075;SDS011;8142;48.242;11.644;2023-07-29T06:48:26;2.67;;;1.93;;
16075;SDS011;8142;48.242;11.644;2023-07-29T06:50:52;1.97;;;1.70;;
16075;SDS011;8142;48.242;11.644;2023-07-29T06:53:20;1.80;;;1.70;;
16075;SDS011;8142;48.242;11.644;2023-07-29T06:55:46;2.80;;;1.80;;
16075;SDS011;8142;48.242;11.644;2023-07-29T06:58:12;2.93;;;1.77;;
16075;SDS011;8142;48.242;11.644;2023-07-29T07:00:38;1.90;;;1.80;;
16075;SDS011;8142;48.242;11.644;2023-07-29T07:03:04;2.27;;;1.83;;
16075;SDS011;8142;48.242;11.644;2023-07-29T07:05:30;1.97;;;1.77;;
16075;SDS011;8142;48.242;11.644;2023-07-29T07:07:56;1.90;;;1.80;;
16075;SDS011;8142;48.242;11.644;2023-07-29T07:10:21;4.43;;;1.93;;
16075;SDS011;8142;48.242;11.644;2023-07-29T07:12:47;6.17;;;2.30;;
16075;SDS011;8142;48.242;11.644;2023-07-29T07:15:13;7.70;;;2.60;;
16075;SDS011;8142;48.242;11.644;2023-07-29T07:17:39;4.80;;;2.37;;
16075;SDS011;8142;48.242;11.644;2023-07-29T07:20:05;13.27;;;2.40;;
16075;SDS011;8142;48.242;11.644;2023-07-29T07:22:32;3.47;;;2.50;;
16075;SDS011;8142;48.242;11.644;2023-07-29T07:24:58;4.93;;;2.23;;
16075;SDS011;8142;48.242;11.644;2023-07-29T07:27:24;5.10;;;2.40;;
16075;SDS011;8142;48.242;11.644;2023-07-29T07:29:49;3.10;;;2.60;;
16075;SDS011;8142;48.242;11.644;2023-07-29T07:32:15;4.03;;;2.50;;
16075;SDS011;8142;48.242;11.644;2023-07-29T07:34:41;3.87;;;2.37;;
16075;SDS011;8142;48.242;11.644;2023-07-29T07:37:07;3.13;;;2.53;;
16075;SDS011;8142;48.242;11.644;2023-07-29T07:39:33;5.43;;;2.60;;
16075;SDS011;8142;48.242;11.644;2023-07-29T07:41:59;3.07;;;2.50;;
16075;SDS011;8142;48.242;11.644;2023-07-29T07:44:25;4.77;;;2.57;;
16075;SDS011;8142;48.242;11.644;2023-07-29T07:46:52;5.73;;;2.43;;
16075;SDS011;8142;48.242;11.644;2023-07-29T07:49:18;4.97;;;2.37;;
16075;SDS011;8142;48.242;11.644;2023-07-29T07:51:44;3.50;;;2.10;;
16075;SDS011;8142;48.242;11.644;2023-07-29T07:54:10;4.50;;;2.30;;
16075;SDS011;8142;48.242;11.644;2023-07-29T07:56:36;4.53;;;2.27;;
16075;SDS011;8142;48.242;11.644;2023-07-29T07:59:02;4.07;;;2.20;;
16075;SDS011;8142;48.242;11.644;2023-07-29T08:01:33;4.53;;;2.23;;
16075;SDS011;8142;48.242;11.644;2023-07-29T08:04:03;3.40;;;2.30;;
16075;SDS011;8142;48.242;11.644;2023-07-29T08:06:29;3.43;;;2.40;;
16075;SDS011;8142;48.242;11.644;2023-07-29T08:08:56;4.37;;;2.47;;
16075;SDS011;8142;48.242;11.644;2023-07-29T08:11:22;2.67;;;2.47;;
16075;SDS011;8142;48.242;11.644;2023-07-29T08:13:48;4.77;;;2.47;;
16075;SDS011;8142;48.242;11.644;2023-07-29T08:16:14;3.60;;;2.20;;
16075;SDS011;8142;48.242;11.644;2023-07-29T08:18:40;2.77;;;2.00;;
16075;SDS011;8142;48.242;11.644;2023-07-29T08:21:06;4.03;;;2.70;;
16075;SDS011;8142;48.242;11.644;2023-07-29T08:23:32;2.50;;;2.30;;
16075;SDS011;8142;48.242;11.644;2023-07-29T08:26:00;2.87;;;2.60;;
16075;SDS011;8142;48.242;11.644;2023-07-29T08:28:28;3.33;;;3.00;;
16075;SDS011;8142;48.242;11.644;2023-07-29T08:30:56;2.70;;;2.50;;
16075;SDS011;8142;48.242;11.644;2023-07-29T08:33:21;3.93;;;2.50;;
16075;SDS011;8142;48.242;11.644;2023-07-29T08:35:47;3.63;;;2.87;;
16075;SDS011;8142;48.242;11.644;2023-07-29T08:38:13;6.60;;;3.10;;
16075;SDS011;8142;48.242;11.644;2023-07-29T08:40:45;3.53;;;2.90;;
16075;SDS011;8142;48.242;11.644;2023-07-29T08:43:20;3.47;;;2.70;;
16075;SDS011;8142;48.242;11.644;2023-07-29T08:45:57;4.57;;;2.80;;
16075;SDS011;8142;48.242;11.644;2023-07-29T08:48:29;3.17;;;2.77;;
16075;SDS011;8142;48.242;11.644;2023-07-29T08:51:07;3.07;;;2.60;;
16075;SDS011;8142;48.242;11.644;2023-07-29T08:53:35;3.63;;;2.73;;
16075;SDS011;8142;48.242;11.644;2023-07-29T08:56:02;3.53;;;2.77;;
16075;SDS011;8142;48.242;11.644;2023-07-29T08:58:29;4.70;;;2.73;;
16075;SDS011;8142;48.242;11.644;2023-07-29T09:00:55;3.53;;;2.77;;
16075;SDS011;8142;48.242;11.644;2023-07-29T09:03:20;3.10;;;2.80;;
16075;SDS011;8142;48.242;11.644;2023-07-29T09:05:46;4.13;;;2.87;;
16075;SDS011;8142;48.242;11.644;2023-07-29T09:08:13;3.60;;;3.10;;
16075;SDS011;8142;48.242;11.644;2023-07-29T09:10:40;4.87;;;2.80;;
16075;SDS011;8142;48.242;11.644;2023-07-29T09:13:06;3.87;;;2.73;;
16075;SDS011;8142;48.242;11.644;2023-07-29T09:15:33;3.50;;;2.47;;
16075;SDS011;8142;48.242;11.644;2023-07-29T09:18:10;2.73;;;2.53;;
16075;SDS011;8142;48.242;11.644;2023-07-29T09:20:36;3.50;;;3.20;;
16075;SDS011;8142;48.242;11.644;2023-07-29T09:23:02;3.33;;;2.90;;
16075;SDS011;8142;48.242;11.644;2023-07-29T09:25:32;4.07;;;3.07;;
16075;SDS011;8142;48.242;11.644;2023-07-29T09:28:01;5.03;;;2.93;;
16075;SDS011;8142;48.242;11.644;2023-07-29T09:30:32;5.17;;;2.97;;
16075;SDS011;8142;48.242;11.644;2023-07-29T09:32:58;3.47;;;2.67;;
16075;SDS011;8142;48.242;11.644;2023-07-29T09:35:26;4.27;;;2.77;;
16075;SDS011;8142;48.242;11.644;2023-07-29T09:37:53;4.33;;;3.10;;
16075;SDS011;8142;48.242;11.644;2023-07-29T09:40:19;3.03;;;2.73;;
16075;SDS011;8142;48.242;11.644;2023-07-29T09:42:49;3.27;;;2.83;;
16075;SDS011;8142;48.242;11.644;2023-07-29T09:45:19;3.37;;;2.90;;
16075;SDS011;8142;48.242;11.644;2023-07-29T09:47:46;3.13;;;2.87;;
16075;SDS011;8142;48.242;11.644;2023-07-29T09:50:12;3.67;;;2.73;;
16075;SDS011;8142;48.242;11.644;2023-07-29T09:52:38;3.50;;;2.60;;
16075;SDS011;8142;48.242;11.644;2023-07-29T09:55:04;3.27;;;2.70;;
16075;SDS011;8142;48.242;11.644;2023-07-29T09:57:31;3.57;;;2.90;;
16075;SDS011;8142;48.242;11.644;2023-07-29T09:59:57;3.83;;;3.07;;
16075;SDS011;8142;48.242;11.644;2023-07-29T10:02:23;3.07;;;2.77;;
16075;SDS011;8142;48.242;11.644;2023-07-29T10:04:52;3.33;;;2.90;;
16075;SDS011;8142;48.242;11.644;2023-07-29T10:07:20;3.17;;;2.93;;
16075;SDS011;8142;48.242;11.644;2023-07-29T10:09:46;4.23;;;2.93;;
16075;SDS011;8142;48.242;11.644;2023-07-29T10:12:13;3.47;;;3.00;;
16075;SDS011;8142;48.242;11.644;2023-07-29T10:14:39;3.40;;;3.10;;
16075;SDS011;8142;48.242;11.644;2023-07-29T10:17:05;3.30;;;3.00;;
16075;SDS011;8142;48.242;11.644;2023-07-29T10:19:31;4.70;;;3.00;;
16075;SDS011;8142;48.242;11.644;2023-07-29T10:22:00;3.30;;;3.00;;
16075;SDS011;8142;48.242;11.644;2023-07-29T10:24:32;3.10;;;2.73;;
16075;SDS011;8142;48.242;11.644;2023-07-29T10:27:00;3.43;;;2.80;;
16075;SDS011;8142;48.242;11.644;2023-07-29T10:29:38;3.20;;;2.90;;
16075;SDS011;8142;48.242;11.644;2023-07-29T10:32:05;3.43;;;2.80;;
16075;SDS011;8142;48.242;11.644;2023-07-29T10:34:32;2.77;;;2.40;;
16075;SDS011;8142;48.242;11.644;2023-07-29T10:37:01;3.30;;;2.90;;
16075;SDS011;8142;48.242;11.644;2023-07-29T10:39:27;3.57;;;2.80;;
16075;SDS011;8142;48.242;11.644;2023-07-29T10:47:14;2.97;;;2.67;;
16075;SDS011;8142;48.242;11.644;2023-07-29T10:49:45;4.03;;;2.70;;
16075;SDS011;8142;48.242;11.644;2023-07-29T10:52:15;3.83;;;3.00;;
16075;SDS011;8142;48.242;11.644;2023-07-29T10:54:52;2.93;;;2.73;;
16075;SDS011;8142;48.242;11.644;2023-07-29T10:59:58;3.10;;;2.80;;
16075;SDS011;8142;48.242;11.644;2023-07-29T11:02:31;3.23;;;2.93;;
16075;SDS011;8142;48.242;11.644;2023-07-29T11:04:59;3.37;;;3.07;;
16075;SDS011;8142;48.242;11.644;2023-07-29T11:07:30;3.83;;;3.10;;
16075;SDS011;8142;48.242;11.644;2023-07-29T11:17:35;3.53;;;2.00;;
16075;SDS011;8142;48.242;11.644;2023-07-29T11:20:04;4.30;;;1.90;;
16075;SDS011;8142;48.242;11.644;2023-07-29T11:22:32;2.07;;;1.80;;
16075;SDS011;8142;48.242;11.644;2023-07-29T11:25:08;2.37;;;2.10;;
16075;SDS011;8142;48.242;11.644;2023-07-29T11:27:36;2.73;;;2.00;;
16075;SDS011;8142;48.242;11.644;2023-07-29T11:30:03;2.80;;;2.20;;
16075;SDS011;8142;48.242;11.644;2023-07-29T11:32:31;2.43;;;1.77;;
16075;SDS011;8142;48.242;11.644;2023-07-29T11:35:05;4.60;;;2.00;;
16075;SDS011;8142;48.242;11.644;2023-07-29T11:37:33;3.00;;;2.27;;
16075;SDS011;8142;48.242;11.644;2023-07-29T11:40:00;2.47;;;2.20;;
16075;SDS011;8142;48.242;11.644;2023-07-29T11:42:26;2.93;;;2.20;;
16075;SDS011;8142;48.242;11.644;2023-07-29T11:44:53;3.33;;;2.17;;
16075;SDS011;8142;48.242;11.644;2023-07-29T11:47:22;4.10;;;2.23;;
16075;SDS011;8142;48.242;11.644;2023-07-29T11:49:48;3.20;;;2.23;;
16075;SDS011;8142;48.242;11.644;2023-07-29T11:52:14;2.87;;;2.20;;
16075;SDS011;8142;48.242;11.644;2023-07-29T11:54:44;2.70;;;2.37;;
16075;SDS011;8142;48.242;11.644;2023-07-29T11:57:14;2.33;;;2.00;;
16075;SDS011;8142;48.242;11.644;2023-07-29T11:59:41;3.10;;;2.13;;
16075;SDS011;8142;48.242;11.644;2023-07-29T12:02:17;3.67;;;2.47;;
16075;SDS011;8142;48.242;11.644;2023-07-29T12:04:46;2.57;;;2.37;;
16075;SDS011;8142;48.242;11.644;2023-07-29T12:07:16;2.80;;;2.20;;
16075;SDS011;8142;48.242;11.644;2023-07-29T12:09:43;4.37;;;2.40;;
16075;SDS011;8142;48.242;11.644;2023-07-29T12:12:11;3.07;;;2.23;;
16075;SDS011;8142;48.242;11.644;2023-07-29T12:14:37;6.23;;;2.40;;
16075;SDS011;8142;48.242;11.644;2023-07-29T12:17:04;4.57;;;2.37;;
16075;SDS011;8142;48.242;11.644;2023-07-29T12:19:34;2.63;;;2.10;;
16075;SDS011;8142;48.242;11.644;2023-07-29T12:22:05;2.70;;;2.43;;
16075;SDS011;8142;48.242;11.644;2023-07-29T12:24:38;3.07;;;2.50;;
16075;SDS011;8142;48.242;11.644;2023-07-29T12:27:09;2.40;;;2.17;;
16075;SDS011;8142;48.242;11.644;2023-07-29T12:29:39;2.43;;;2.23;;
16075;SDS011;8142;48.242;11.644;2023-07-29T12:32:09;2.60;;;2.40;;
16075;SDS011;8142;48.242;11.644;2023-07-29T12:34:36;2.40;;;2.20;;
16075;SDS011;8142;48.242;11.644;2023-07-29T12:37:04;3.53;;;2.80;;
16075;SDS011;8142;48.242;11.644;2023-07-29T12:39:35;2.60;;;2.40;;
16075;SDS011;8142;48.242;11.644;2023-07-29T12:42:05;2.57;;;2.37;;
16075;SDS011;8142;48.242;11.644;2023-07-29T12:44:32;4.40;;;2.30;;
16075;SDS011;8142;48.242;11.644;2023-07-29T12:47:00;3.83;;;2.20;;
16075;SDS011;8142;48.242;11.644;2023-07-29T12:49:28;3.00;;;2.40;;
16075;SDS011;8142;48.242;11.644;2023-07-29T12:51:55;2.93;;;2.60;;
16075;SDS011;8142;48.242;11.644;2023-07-29T12:54:21;4.33;;;2.87;;
16075;SDS011;8142;48.242;11.644;2023-07-29T12:56:48;3.00;;;2.70;;
16075;SDS011;8142;48.242;11.644;2023-07-29T12:59:15;5.27;;;2.90;;
16075;SDS011;8142;48.242;11.644;2023-07-29T13:01:40;2.90;;;2.40;;
16075;SDS011;8142;48.242;11.644;2023-07-29T13:04:06;3.43;;;2.50;;
16075;SDS011;8142;48.242;11.644;2023-07-29T13:06:32;6.83;;;3.20;;
16075;SDS011;8142;48.242;11.644;2023-07-29T13:08:58;12.27;;;8.20;;
16075;SDS011;8142;48.242;11.644;2023-07-29T13:11:24;7.60;;;4.40;;
16075;SDS011;8142;48.242;11.644;2023-07-29T13:13:51;4.20;;;3.20;;
16075;SDS011;8142;48.242;11.644;2023-07-29T13:16:17;2.80;;;2.60;;
16075;SDS011;8142;48.242;11.644;2023-07-29T13:18:43;2.90;;;2.70;;
16075;SDS011;8142;48.242;11.644;2023-07-29T13:21:09;3.20;;;2.90;;
16075;SDS011;8142;48.242;11.644;2023-07-29T13:23:35;2.73;;;2.53;;
16075;SDS011;8142;48.242;11.644;2023-07-29T13:26:01;3.77;;;2.97;;
16075;SDS011;8142;48.242;11.644;2023-07-29T13:28:27;4.17;;;2.90;;
16075;SDS011;8142;48.242;11.644;2023-07-29T13:30:53;3.30;;;3.00;;
16075;SDS011;8142;48.242;11.644;2023-07-29T13:33:19;3.40;;;2.93;;
16075;SDS011;8142;48.242;11.644;2023-07-29T13:35:44;4.03;;;3.47;;
16075;SDS011;8142;48.242;11.644;2023-07-29T13:38:10;3.53;;;3.10;;
16075;SDS011;8142;48.242;11.644;2023-07-29T13:40:36;3.83;;;3.00;;
16075;SDS011;8142;48.242;11.644;2023-07-29T13:43:02;3.67;;;3.10;;
16075;SDS011;8142;48.242;11.644;2023-07-29T13:45:28;3.43;;;3.13;;
16075;SDS011;8142;48.242;11.644;2023-07-29T13:47:54;4.40;;;2.90;;
16075;SDS011;8142;48.242;11.644;2023-07-29T13:50:20;3.43;;;3.10;;
16075;SDS011;8142;48.242;11.644;2023-07-29T13:52:46;4.03;;;3.03;;
16075;SDS011;8142;48.242;11.644;2023-07-29T13:55:12;3.30;;;3.00;;
16075;SDS011;8142;48.242;11.644;2023-07-29T13:57:38;3.87;;;3.00;;
16075;SDS011;8142;48.242;11.644;2023-07-29T14:00:07;3.93;;;3.27;;
16075;SDS011;8142;48.242;11.644;2023-07-29T14:02:36;3.43;;;2.70;;
16075;SDS011;8142;48.242;11.644;2023-07-29T14:05:02;3.40;;;3.10;;
16075;SDS011;8142;48.242;11.644;2023-07-29T14:07:29;3.23;;;2.93;;
16075;SDS011;8142;48.242;11.644;2023-07-29T14:09:55;3.63;;;3.10;;
16075;SDS011;8142;48.242;11.644;2023-07-29T14:12:23;3.37;;;2.77;;
16075;SDS011;8142;48.242;11.644;2023-07-29T14:14:49;3.50;;;2.70;;
16075;SDS011;8142;48.242;11.644;2023-07-29T14:17:15;2.73;;;2.40;;
16075;SDS011;8142;48.242;11.644;2023-07-29T14:19:40;3.60;;;2.87;;
16075;SDS011;8142;48.242;11.644;2023-07-29T14:22:06;3.20;;;2.90;;
16075;SDS011;8142;48.242;11.644;2023-07-29T14:24:32;3.37;;;2.93;;
16075;SDS011;8142;48.242;11.644;2023-07-29T14:26:58;4.77;;;3.10;;
16075;SDS011;8142;48.242;11.644;2023-07-29T14:29:24;4.47;;;2.80;;
16075;SDS011;8142;48.242;11.644;2023-07-29T14:31:49;3.17;;;2.87;;
16075;SDS011;8142;48.242;11.644;2023-07-29T14:34:15;3.00;;;2.70;;
16075;SDS011;8142;48.242;11.644;2023-07-29T14:36:41;3.93;;;2.87;;
16075;SDS011;8142;48.242;11.644;2023-07-29T14:39:07;3.83;;;3.10;;
16075;SDS011;8142;48.242;11.644;2023-07-29T14:41:33;4.67;;;3.10;;
16075;SDS011;8142;48.242;11.644;2023-07-29T14:43:59;4.23;;;3.37;;
16075;SDS011;8142;48.242;11.644;2023-07-29T14:46:25;3.33;;;2.70;;
16075;SDS011;8142;48.242;11.644;2023-07-29T14:48:51;4.63;;;2.80;;
16075;SDS011;8142;48.242;11.644;2023-07-29T14:51:17;5.93;;;3.43;;
16075;SDS011;8142;48.242;11.644;2023-07-29T14:53:44;4.07;;;3.23;;
16075;SDS011;8142;48.242;11.644;2023-07-29T14:56:10;4.77;;;3.17;;
16075;SDS011;8142;48.242;11.644;2023-07-29T14:58:43;4.50;;;3.00;;
16075;SDS011;8142;48.242;11.644;2023-07-29T15:01:09;5.13;;;3.30;;
16075;SDS011;8142;48.242;11.644;2023-07-29T15:03:35;4.37;;;3.00;;
16075;SDS011;8142;48.242;11.644;2023-07-29T15:06:00;3.93;;;3.13;;
16075;SDS011;8142;48.242;11.644;2023-07-29T15:08:28;3.13;;;2.80;;